createdAt,value
2019-03-08T00:00:27.388Z,5.90
2019-03-08T00:02:01.067Z,5.88
2019-03-08T00:03:34.818Z,5.88
2019-03-08T00:05:09.069Z,5.85
2019-03-08T00:06:42.821Z,5.84
2019-03-08T00:08:16.463Z,5.84
2019-03-08T00:09:50.312Z,5.85
2019-03-08T00:11:24.296Z,5.84
2019-03-08T00:12:58.115Z,5.84
2019-03-08T00:14:31.784Z,5.82
2019-03-08T00:16:05.502Z,5.83
2019-03-08T00:17:39.474Z,5.83
2019-03-08T00:19:13.575Z,5.83
2019-03-08T00:20:47.200Z,5.81
2019-03-08T00:22:20.836Z,5.82
2019-03-08T00:23:54.729Z,5.81
2019-03-08T00:25:28.897Z,5.80
2019-03-08T00:27:02.708Z,5.77
2019-03-08T00:28:36.375Z,5.70
2019-03-08T00:30:15.442Z,5.63
2019-03-08T00:31:49.435Z,5.55
2019-03-08T00:33:23.659Z,5.47
2019-03-08T00:34:57.378Z,5.40
2019-03-08T00:36:31.414Z,5.39
2019-03-08T00:38:05.126Z,5.40
2019-03-08T00:39:38.757Z,5.37
2019-03-08T00:41:12.495Z,5.35
2019-03-08T00:42:46.372Z,5.34
2019-03-08T00:44:20.059Z,5.32
2019-03-08T00:45:53.825Z,5.32
2019-03-08T00:47:27.573Z,5.32
2019-03-08T00:49:01.891Z,5.33
2019-03-08T00:50:35.587Z,5.33
2019-03-08T00:52:09.211Z,5.34
2019-03-08T00:53:42.914Z,5.33
2019-03-08T00:55:17.098Z,5.35
2019-03-08T00:56:51.094Z,5.36
2019-03-08T00:58:24.802Z,5.38
2019-03-08T00:59:58.438Z,5.36
2019-03-08T01:01:33.194Z,5.36
2019-03-08T01:03:06.952Z,5.34
2019-03-08T01:04:40.680Z,5.31
2019-03-08T01:06:14.363Z,5.30
2019-03-08T01:07:48.291Z,5.28
2019-03-08T01:09:22.089Z,5.28
2019-03-08T01:10:55.708Z,5.28
2019-03-08T01:12:30.133Z,5.27
2019-03-08T01:14:04.495Z,5.24
2019-03-08T01:15:38.207Z,5.22
2019-03-08T01:17:12.002Z,5.19
2019-03-08T01:18:45.666Z,5.17
2019-03-08T01:20:20.731Z,5.11
2019-03-08T01:21:54.420Z,5.08
2019-03-08T01:23:28.177Z,5.02
2019-03-08T01:25:01.872Z,4.95
2019-03-08T01:26:35.928Z,4.81
2019-03-08T01:28:11.317Z,4.74
2019-03-08T01:29:45.125Z,4.67
2019-03-08T01:31:18.821Z,4.61
2019-03-08T01:32:53.151Z,4.58
2019-03-08T01:34:26.894Z,4.55
2019-03-08T01:36:00.684Z,4.54
2019-03-08T01:37:34.426Z,4.52
2019-03-08T01:39:09.075Z,4.52
2019-03-08T01:40:42.790Z,4.54
2019-03-08T01:42:16.458Z,4.55
2019-03-08T01:43:50.299Z,4.58
2019-03-08T01:45:24.491Z,4.60
2019-03-08T01:46:58.193Z,4.63
2019-03-08T01:48:31.925Z,4.65
2019-03-08T01:50:07.210Z,4.64
2019-03-08T01:51:41.102Z,4.67
2019-03-08T01:53:14.807Z,4.68
2019-03-08T01:54:48.576Z,4.69
2019-03-08T01:56:22.377Z,4.68
2019-03-08T01:57:56.551Z,4.68
2019-03-08T01:59:30.334Z,4.67
2019-03-08T02:01:04.001Z,4.66
2019-03-08T02:02:39.483Z,4.65
2019-03-08T02:04:13.546Z,4.65
2019-03-08T02:05:47.208Z,4.65
2019-03-08T02:07:20.961Z,4.64
2019-03-08T02:08:55.077Z,4.61
2019-03-08T02:10:28.895Z,4.59
2019-03-08T02:12:02.633Z,4.54
2019-03-08T02:13:36.357Z,4.50
2019-03-08T02:15:12.942Z,4.48
2019-03-08T02:16:48.486Z,4.44
2019-03-08T02:18:22.221Z,4.37
2019-03-08T02:19:55.850Z,4.30
2019-03-08T02:21:29.855Z,4.24
2019-03-08T02:23:03.969Z,4.18
2019-03-08T02:24:37.613Z,4.17
2019-03-08T02:26:12.292Z,4.16
2019-03-08T02:27:46.009Z,4.15
2019-03-08T02:29:19.937Z,4.16
2019-03-08T02:30:54.867Z,4.18
2019-03-08T02:32:28.509Z,4.22
2019-03-08T02:34:02.230Z,4.25
2019-03-08T02:35:36.297Z,4.27
2019-03-08T02:37:09.990Z,4.29
2019-03-08T02:38:43.650Z,4.28
2019-03-08T02:40:34.822Z,4.26
2019-03-08T02:42:08.986Z,4.24
2019-03-08T02:43:42.631Z,4.24
2019-03-08T02:45:17.916Z,4.19
2019-03-08T02:46:52.416Z,4.15
2019-03-08T02:48:26.333Z,4.12
2019-03-08T02:50:00.017Z,4.12
2019-03-08T02:51:33.776Z,4.09
2019-03-08T02:53:07.497Z,4.06
2019-03-08T02:54:41.721Z,4.04
2019-03-08T02:56:15.372Z,4.02
2019-03-08T02:57:49.084Z,4.02
2019-03-08T02:59:22.806Z,4.03
2019-03-08T03:00:56.789Z,4.01
2019-03-08T03:02:31.130Z,4.01
2019-03-08T03:04:04.955Z,3.96
2019-03-08T03:05:39.267Z,3.92
2019-03-08T03:07:13.568Z,3.88
2019-03-08T03:08:47.237Z,3.85
2019-03-08T03:10:20.975Z,3.85
2019-03-08T03:11:54.660Z,3.81
2019-03-08T03:13:28.846Z,3.79
2019-03-08T03:15:02.583Z,3.78
2019-03-08T03:16:36.367Z,3.77
2019-03-08T03:18:10.118Z,3.78
2019-03-08T03:19:45.066Z,3.78
2019-03-08T03:21:19.407Z,3.79
2019-03-08T03:22:53.153Z,3.81
2019-03-08T03:24:26.819Z,3.81
2019-03-08T03:26:02.442Z,3.77
2019-03-08T03:27:37.779Z,3.77
2019-03-08T03:29:11.405Z,3.76
2019-03-08T03:30:45.037Z,3.78
2019-03-08T03:32:19.320Z,3.80
2019-03-08T03:33:53.336Z,3.82
2019-03-08T03:35:27.070Z,3.84
2019-03-08T03:37:04.493Z,3.83
2019-03-08T03:38:39.191Z,3.85
2019-03-08T03:40:15.356Z,3.87
2019-03-08T03:41:49.097Z,3.89
2019-03-08T03:43:22.712Z,3.90
2019-03-08T03:44:56.502Z,3.90
2019-03-08T03:46:30.149Z,3.91
2019-03-08T03:48:03.993Z,3.93
2019-03-08T03:49:37.703Z,3.91
2019-03-08T03:51:11.727Z,3.88
2019-03-08T03:52:45.494Z,3.85
2019-03-08T03:54:20.848Z,3.81
2019-03-08T03:55:54.622Z,3.78
2019-03-08T03:57:29.087Z,3.78
2019-03-08T03:59:02.875Z,3.79
2019-03-08T04:00:38.907Z,3.80
2019-03-08T04:02:13.713Z,3.77
2019-03-08T04:03:47.728Z,3.75
2019-03-08T04:05:21.462Z,3.75
2019-03-08T04:06:55.099Z,3.76
2019-03-08T04:08:28.866Z,3.74
2019-03-08T04:10:04.918Z,3.71
2019-03-08T04:11:39.113Z,3.69
2019-03-08T04:13:12.772Z,3.67
2019-03-08T04:14:46.479Z,3.65
2019-03-08T04:16:20.505Z,3.61
2019-03-08T04:17:54.138Z,3.57
2019-03-08T04:19:28.202Z,3.53
2019-03-08T04:21:01.903Z,3.48
2019-03-08T04:22:36.080Z,3.49
2019-03-08T04:24:09.782Z,3.46
2019-03-08T04:25:43.496Z,3.44
2019-03-08T04:27:17.141Z,3.40
2019-03-08T04:28:51.059Z,3.37
2019-03-08T04:30:24.737Z,3.35
2019-03-08T04:31:58.443Z,3.27
2019-03-08T04:33:32.052Z,3.24
2019-03-08T04:35:06.369Z,3.20
2019-03-08T04:36:41.695Z,3.16
2019-03-08T04:38:15.521Z,3.09
2019-03-08T04:39:49.234Z,3.08
2019-03-08T04:41:23.201Z,3.10
2019-03-08T04:42:56.953Z,3.10
2019-03-08T04:44:30.791Z,3.07
2019-03-08T04:46:04.433Z,3.04
2019-03-08T04:47:38.387Z,3.03
2019-03-08T04:49:12.042Z,3.05
2019-03-08T04:50:45.776Z,3.08
2019-03-08T04:52:19.638Z,3.12
2019-03-08T04:53:53.569Z,3.17
2019-03-08T04:55:27.283Z,3.25
2019-03-08T04:57:01.011Z,3.34
2019-03-08T04:58:34.725Z,3.39
2019-03-08T05:00:14.004Z,3.45
2019-03-08T05:01:47.700Z,3.51
2019-03-08T05:03:21.354Z,3.57
2019-03-08T05:04:55.407Z,3.72
2019-03-08T05:06:29.530Z,3.89
2019-03-08T05:08:03.195Z,4.05
2019-03-08T05:09:36.939Z,4.18
2019-03-08T05:11:10.627Z,4.31
2019-03-08T05:12:44.614Z,4.43
2019-03-08T05:14:18.249Z,4.53
2019-03-08T05:15:51.969Z,4.66
2019-03-08T05:17:25.696Z,4.77
2019-03-08T05:18:59.802Z,4.85
2019-03-08T05:20:33.555Z,4.94
2019-03-08T05:22:07.190Z,4.98
2019-03-08T05:23:40.892Z,5.05
2019-03-08T05:25:15.414Z,5.37
2019-03-08T05:26:49.092Z,5.93
2019-03-08T05:28:24.078Z,6.46
2019-03-08T05:29:58.299Z,6.88
2019-03-08T05:31:32.614Z,7.31
2019-03-08T05:33:06.873Z,7.49
2019-03-08T05:34:41.677Z,7.35
2019-03-08T05:36:16.378Z,7.27
2019-03-08T05:37:50.867Z,7.28
2019-03-08T05:39:24.627Z,7.28
2019-03-08T05:40:58.904Z,7.23
2019-03-08T05:42:33.191Z,7.39
2019-03-08T05:44:07.738Z,7.77
2019-03-08T05:45:41.995Z,8.22
2019-03-08T05:47:16.294Z,8.47
2019-03-08T05:48:50.590Z,8.69
2019-03-08T05:50:25.095Z,8.66
2019-03-08T05:51:59.327Z,8.31
2019-03-08T05:53:33.610Z,8.03
2019-03-08T05:55:10.652Z,7.87
2019-03-08T05:56:52.165Z,7.76
2019-03-08T05:58:22.281Z,7.66
2019-03-08T05:59:56.524Z,7.51
2019-03-08T06:01:30.820Z,7.38
2019-03-08T06:03:05.614Z,7.30
2019-03-08T06:04:39.930Z,7.68
2019-03-08T06:06:14.248Z,8.46
2019-03-08T06:07:48.684Z,9.34
2019-03-08T06:09:23.494Z,10.13
2019-03-08T06:10:57.794Z,10.69
2019-03-08T06:12:32.146Z,11.11
2019-03-08T06:14:06.472Z,11.65
2019-03-08T06:15:41.154Z,12.12
2019-03-08T06:17:15.428Z,12.62
2019-03-08T06:18:49.666Z,13.15
2019-03-08T06:20:23.923Z,13.47
2019-03-08T06:21:58.500Z,13.56
2019-03-08T06:23:33.368Z,13.95
2019-03-08T06:25:07.734Z,14.39
2019-03-08T06:26:41.989Z,14.56
2019-03-08T06:28:16.458Z,14.66
2019-03-08T06:29:50.689Z,14.64
2019-03-08T06:31:24.993Z,14.79
2019-03-08T06:33:00.009Z,15.05
2019-03-08T06:34:34.440Z,15.07
2019-03-08T06:36:09.908Z,15.09
2019-03-08T06:37:44.240Z,15.21
2019-03-08T06:39:18.918Z,15.26
2019-03-08T06:40:53.253Z,15.42
2019-03-08T06:42:27.482Z,15.45
2019-03-08T06:44:01.793Z,15.38
2019-03-08T06:45:36.078Z,15.74
2019-03-08T06:47:12.117Z,16.30
2019-03-08T06:48:46.339Z,16.56
2019-03-08T06:50:20.665Z,16.57
2019-03-08T06:51:54.988Z,16.47
2019-03-08T06:53:29.638Z,16.45
2019-03-08T06:55:05.268Z,16.72
2019-03-08T06:56:39.536Z,16.94
2019-03-08T06:58:15.417Z,16.97
2019-03-08T06:59:51.583Z,17.19
2019-03-08T07:01:25.993Z,17.63
2019-03-08T07:03:00.334Z,18.06
2019-03-08T07:04:34.574Z,18.31
2019-03-08T07:06:09.016Z,18.54
2019-03-08T07:07:43.362Z,18.72
2019-03-08T07:09:17.607Z,18.54
2019-03-08T07:10:52.247Z,18.53
2019-03-08T07:12:26.780Z,18.41
2019-03-08T07:14:01.062Z,18.45
2019-03-08T07:15:35.296Z,18.57
2019-03-08T07:17:09.525Z,18.90
2019-03-08T07:18:44.151Z,19.19
2019-03-08T07:20:23.225Z,19.18
2019-03-08T07:22:05.098Z,19.34
2019-03-08T07:23:40.980Z,19.55
2019-03-08T07:25:26.372Z,19.88
2019-03-08T07:27:08.688Z,19.99
2019-03-08T07:28:57.442Z,20.16
2019-03-08T07:30:36.362Z,20.07
2019-03-08T07:32:14.929Z,20.37
2019-03-08T07:33:54.354Z,20.71
2019-03-08T07:35:32.982Z,20.77
2019-03-08T07:37:11.991Z,20.51
2019-03-08T07:39:04.433Z,20.55
2019-03-08T07:40:49.373Z,21.08
2019-03-08T07:42:28.528Z,21.40
2019-03-08T07:44:10.120Z,21.73
2019-03-08T07:45:49.028Z,21.99
2019-03-08T07:47:37.060Z,22.22
2019-03-08T07:49:12.938Z,22.40
2019-03-08T07:50:57.654Z,22.59
2019-03-08T07:52:49.799Z,22.65
2019-03-08T07:54:25.978Z,22.65
2019-03-08T07:56:17.847Z,22.53
2019-03-08T07:58:03.016Z,22.01
2019-03-08T07:59:41.818Z,21.97
2019-03-08T08:01:29.866Z,21.69
2019-03-08T08:03:11.880Z,21.85
2019-03-08T08:04:59.893Z,22.12
2019-03-08T08:06:35.775Z,22.47
2019-03-08T08:08:28.194Z,22.82
2019-03-08T08:10:10.007Z,23.17
2019-03-08T08:11:54.941Z,22.84
2019-03-08T08:13:40.619Z,23.01
2019-03-08T08:15:34.638Z,22.83
2019-03-08T08:17:16.191Z,22.94
2019-03-08T08:19:01.555Z,23.23
2019-03-08T08:20:46.913Z,23.23
2019-03-08T08:22:37.721Z,23.35
2019-03-08T08:24:30.258Z,23.74
2019-03-08T08:26:11.826Z,23.95
2019-03-08T08:27:50.305Z,24.11
2019-03-08T08:29:34.675Z,24.38
2019-03-08T08:31:07.643Z,24.74
2019-03-08T08:33:00.103Z,24.97
2019-03-08T08:34:52.250Z,24.97
2019-03-08T08:36:28.477Z,25.15
2019-03-08T08:38:04.389Z,25.16
2019-03-08T08:39:46.051Z,25.23
2019-03-08T08:41:21.926Z,25.42
2019-03-08T08:43:00.873Z,25.50
2019-03-08T08:44:37.467Z,25.62
2019-03-08T08:46:18.990Z,25.74
2019-03-08T08:48:04.227Z,25.70
2019-03-08T08:49:55.118Z,25.64
2019-03-08T08:51:29.845Z,25.92
2019-03-08T08:53:08.703Z,25.99
2019-03-08T08:54:53.509Z,25.83
2019-03-08T08:56:35.358Z,26.00
2019-03-08T08:58:11.525Z,26.32
2019-03-08T08:59:47.702Z,26.76
2019-03-08T09:01:23.612Z,27.06
2019-03-08T09:03:05.477Z,27.20
2019-03-08T09:04:44.329Z,27.36
2019-03-08T09:06:20.563Z,27.20
2019-03-08T09:07:59.488Z,27.06
2019-03-08T09:09:35.386Z,26.90
2019-03-08T09:11:11.410Z,27.25
2019-03-08T09:12:50.284Z,27.74
2019-03-08T09:14:26.142Z,27.72
2019-03-08T09:16:05.179Z,27.62
2019-03-08T09:17:56.603Z,27.37
2019-03-08T09:19:35.174Z,27.55
2019-03-08T09:21:26.370Z,27.55
2019-03-08T09:23:02.362Z,27.72
2019-03-08T09:24:44.034Z,28.00
2019-03-08T09:26:25.853Z,28.30
2019-03-08T09:28:01.702Z,28.42
2019-03-08T09:29:41.228Z,28.58
2019-03-08T09:31:16.059Z,28.87
2019-03-08T09:32:58.908Z,29.15
2019-03-08T09:34:32.451Z,29.41
2019-03-08T09:36:11.784Z,29.35
2019-03-08T09:37:53.719Z,29.21
2019-03-08T09:39:35.874Z,29.29
2019-03-08T09:41:18.269Z,29.49
2019-03-08T09:43:00.066Z,29.26
2019-03-08T09:44:44.619Z,29.19
2019-03-08T09:46:21.368Z,29.30
2019-03-08T09:47:57.303Z,29.55
2019-03-08T09:49:35.873Z,29.32
2019-03-08T09:51:12.032Z,29.08
2019-03-08T09:52:53.808Z,29.04
2019-03-08T09:54:32.769Z,28.59
2019-03-08T09:56:14.133Z,28.15
2019-03-08T09:57:56.237Z,27.79
2019-03-08T09:59:47.437Z,27.43
2019-03-08T10:01:39.879Z,27.08
2019-03-08T10:03:32.365Z,26.76
2019-03-08T10:05:08.208Z,26.50
2019-03-08T10:06:59.140Z,26.34
2019-03-08T10:08:53.476Z,26.35
2019-03-08T10:10:29.349Z,26.41
2019-03-08T10:12:12.075Z,26.41
2019-03-08T10:14:03.770Z,26.26
2019-03-08T10:15:42.378Z,26.08
2019-03-08T10:17:30.358Z,26.03
2019-03-08T10:19:12.490Z,25.73
2019-03-08T10:21:04.660Z,25.53
2019-03-08T10:22:58.545Z,25.51
2019-03-08T10:24:52.653Z,25.39
2019-03-08T10:26:37.180Z,25.47
2019-03-08T10:28:29.552Z,25.59
2019-03-08T10:30:09.480Z,25.77
2019-03-08T10:31:45.324Z,25.86
2019-03-08T10:33:46.051Z,25.93
2019-03-08T10:35:23.573Z,26.06
2019-03-08T10:36:52.588Z,26.06
2019-03-08T10:38:28.448Z,26.01
2019-03-08T10:40:13.564Z,26.06
2019-03-08T10:42:04.712Z,26.19
2019-03-08T10:43:52.531Z,26.27
2019-03-08T10:45:38.397Z,26.36
2019-03-08T10:47:31.095Z,26.34
2019-03-08T10:49:07.704Z,26.37
2019-03-08T10:50:55.737Z,26.33
2019-03-08T10:52:38.431Z,26.34
2019-03-08T10:54:16.958Z,26.37
2019-03-08T10:56:05.115Z,26.38
2019-03-08T10:57:46.938Z,26.28
2019-03-08T10:59:35.948Z,26.39
2019-03-08T11:01:11.854Z,26.44
2019-03-08T11:02:56.998Z,26.42
2019-03-08T11:04:45.308Z,26.46
2019-03-08T11:06:21.466Z,26.46
2019-03-08T11:08:00.525Z,26.46
2019-03-08T11:09:48.370Z,26.33
2019-03-08T11:11:33.271Z,26.37
2019-03-08T11:13:24.718Z,26.40
2019-03-08T11:15:12.644Z,26.44
2019-03-08T11:16:48.511Z,26.54
2019-03-08T11:18:27.714Z,26.65
2019-03-08T11:20:20.085Z,26.68
2019-03-08T11:22:12.017Z,26.73
2019-03-08T11:23:48.235Z,26.74
2019-03-08T11:25:40.620Z,26.77
2019-03-08T11:27:19.182Z,26.65
2019-03-08T11:29:04.554Z,26.60
2019-03-08T11:30:43.398Z,26.68
2019-03-08T11:32:22.983Z,26.77
2019-03-08T11:34:06.222Z,26.72
2019-03-08T11:35:51.382Z,26.70
2019-03-08T11:37:27.911Z,26.73
2019-03-08T11:39:07.371Z,26.79
2019-03-08T11:40:43.229Z,26.86
2019-03-08T11:42:19.098Z,26.88
2019-03-08T11:44:06.753Z,26.90
2019-03-08T11:45:42.958Z,26.91
2019-03-08T11:47:18.861Z,26.94
2019-03-08T11:48:57.662Z,26.97
2019-03-08T11:50:36.480Z,26.98
2019-03-08T11:52:15.871Z,27.04
2019-03-08T11:53:56.396Z,27.02
2019-03-08T11:55:31.950Z,26.94
2019-03-08T11:57:24.720Z,26.97
2019-03-08T11:59:16.733Z,26.98
2019-03-08T12:00:58.328Z,26.95
2019-03-08T12:02:37.868Z,26.86
2019-03-08T12:04:28.432Z,26.81
2019-03-08T12:06:20.735Z,26.74
2019-03-08T12:07:56.815Z,26.60
2019-03-08T12:09:32.658Z,26.43
2019-03-08T12:11:26.854Z,26.39
2019-03-08T12:13:18.352Z,26.36
2019-03-08T12:14:54.215Z,26.27
2019-03-08T12:16:32.902Z,26.19
2019-03-08T12:18:21.382Z,26.15
2019-03-08T12:19:57.247Z,26.14
2019-03-08T12:21:35.857Z,26.17
2019-03-08T12:23:11.701Z,26.22
2019-03-08T12:24:47.828Z,26.28
2019-03-08T12:26:48.893Z,26.34
2019-03-08T12:28:39.610Z,26.41
2019-03-08T12:30:31.594Z,26.46
2019-03-08T12:32:16.525Z,26.51
2019-03-08T12:34:01.051Z,26.47
2019-03-08T12:35:55.191Z,26.48
2019-03-08T12:37:43.555Z,26.52
2019-03-08T12:39:22.818Z,26.61
2019-03-08T12:41:05.049Z,26.65
2019-03-08T12:42:43.731Z,26.57
2019-03-08T12:44:28.689Z,26.47
2019-03-08T12:46:04.723Z,26.59
2019-03-08T12:47:40.816Z,26.60
2019-03-08T12:49:16.664Z,26.67
2019-03-08T12:50:58.306Z,26.61
2019-03-08T12:52:34.552Z,26.62
2019-03-08T12:54:25.753Z,26.54
2019-03-08T12:56:10.743Z,26.46
2019-03-08T12:58:02.803Z,26.50
2019-03-08T12:59:44.896Z,26.56
2019-03-08T13:01:23.727Z,26.58
2019-03-08T13:03:15.874Z,26.54
2019-03-08T13:04:57.938Z,26.43
2019-03-08T13:06:45.779Z,26.45
2019-03-08T13:08:34.553Z,26.49
2019-03-08T13:10:16.814Z,26.55
2019-03-08T13:11:51.199Z,26.60
2019-03-08T13:13:25.409Z,26.63
2019-03-08T13:14:59.655Z,26.69
2019-03-08T13:16:34.020Z,26.72
2019-03-08T13:18:08.235Z,26.77
2019-03-08T13:19:42.508Z,26.84
2019-03-08T13:21:16.745Z,26.91
2019-03-08T13:22:51.162Z,26.96
2019-03-08T13:24:25.661Z,26.92
2019-03-08T13:26:01.278Z,26.91
2019-03-08T13:27:35.471Z,26.99
2019-03-08T13:29:10.161Z,27.04
2019-03-08T13:30:44.385Z,27.02
2019-03-08T13:32:18.661Z,26.93
2019-03-08T13:33:52.956Z,26.93
2019-03-08T13:35:27.353Z,26.93
2019-03-08T13:37:02.017Z,26.90
2019-03-08T13:38:36.661Z,26.89
2019-03-08T13:40:13.406Z,26.88
2019-03-08T13:41:47.924Z,26.81
2019-03-08T13:43:22.122Z,26.70
2019-03-08T13:44:56.386Z,26.63
2019-03-08T13:46:30.751Z,26.61
2019-03-08T13:48:05.407Z,26.56
2019-03-08T13:49:39.759Z,26.51
2019-03-08T13:51:14.033Z,26.43
2019-03-08T13:52:48.376Z,26.40
2019-03-08T13:54:22.827Z,26.34
2019-03-08T13:55:57.099Z,26.31
2019-03-08T13:57:31.406Z,26.32
2019-03-08T13:59:05.642Z,26.32
2019-03-08T14:00:40.272Z,26.31
2019-03-08T14:02:14.499Z,26.33
2019-03-08T14:03:48.817Z,26.38
2019-03-08T14:05:23.163Z,26.38
2019-03-08T14:06:57.753Z,26.39
2019-03-08T14:08:32.658Z,26.42
2019-03-08T14:10:18.275Z,26.42
2019-03-08T14:11:52.615Z,26.37
2019-03-08T14:13:27.160Z,26.37
2019-03-08T14:15:01.437Z,26.36
2019-03-08T14:16:35.692Z,26.41
2019-03-08T14:18:10.308Z,26.34
2019-03-08T14:19:44.918Z,26.18
2019-03-08T14:21:19.237Z,26.07
2019-03-08T14:22:53.460Z,25.98
2019-03-08T14:24:27.750Z,25.91
2019-03-08T14:26:02.685Z,25.87
2019-03-08T14:27:36.933Z,25.82
2019-03-08T14:29:11.263Z,25.74
2019-03-08T14:30:57.898Z,25.73
2019-03-08T14:32:29.426Z,25.72
2019-03-08T14:34:03.707Z,25.67
2019-03-08T14:35:37.993Z,25.64
2019-03-08T14:37:12.268Z,25.56
2019-03-08T14:38:46.998Z,25.49
2019-03-08T14:40:39.284Z,25.43
2019-03-08T14:42:21.296Z,25.26
2019-03-08T14:43:57.487Z,25.21
2019-03-08T14:45:44.563Z,25.13
2019-03-08T14:47:20.393Z,25.08
2019-03-08T14:48:55.234Z,25.03
2019-03-08T14:50:31.885Z,25.02
2019-03-08T14:52:05.633Z,24.97
2019-03-08T14:53:39.948Z,24.93
2019-03-08T14:55:14.947Z,24.92
2019-03-08T14:56:49.562Z,24.95
2019-03-08T14:58:23.813Z,24.88
2019-03-08T14:59:58.091Z,24.92
2019-03-08T15:01:32.368Z,24.91
2019-03-08T15:03:06.922Z,24.85
2019-03-08T15:04:41.183Z,24.79
2019-03-08T15:06:15.446Z,24.74
2019-03-08T15:07:49.738Z,24.69
2019-03-08T15:09:28.938Z,24.65
2019-03-08T15:11:00.561Z,24.58
2019-03-08T15:12:37.612Z,24.47
2019-03-08T15:14:10.772Z,24.37
2019-03-08T15:15:45.407Z,24.25
2019-03-08T15:17:20.117Z,24.20
2019-03-08T15:18:54.430Z,24.11
2019-03-08T15:20:28.677Z,24.03
2019-03-08T15:22:03.018Z,23.99
2019-03-08T15:23:37.299Z,23.94
2019-03-08T15:25:14.064Z,23.87
2019-03-08T15:26:48.438Z,23.80
2019-03-08T15:28:23.277Z,23.67
2019-03-08T15:29:57.553Z,23.61
2019-03-08T15:31:31.908Z,23.53
2019-03-08T15:33:06.077Z,23.44
2019-03-08T15:34:40.618Z,23.35
2019-03-08T15:36:14.875Z,23.26
2019-03-08T15:37:49.567Z,23.18
2019-03-08T15:39:23.771Z,23.14
2019-03-08T15:40:58.115Z,23.07
2019-03-08T15:42:36.293Z,23.05
2019-03-08T15:44:08.440Z,22.96
2019-03-08T15:45:44.519Z,22.91
2019-03-08T15:47:23.601Z,22.86
2019-03-08T15:48:55.321Z,22.78
2019-03-08T15:50:29.545Z,22.70
2019-03-08T15:52:04.759Z,22.63
2019-03-08T15:53:39.514Z,22.53
2019-03-08T15:55:14.186Z,22.43
2019-03-08T15:56:48.468Z,22.35
2019-03-08T15:58:22.767Z,22.26
2019-03-08T15:59:57.100Z,22.19
2019-03-08T16:01:31.404Z,22.12
2019-03-08T16:03:05.652Z,22.06
2019-03-08T16:04:39.951Z,22.05
2019-03-08T16:06:14.729Z,22.01
2019-03-08T16:07:49.010Z,21.93
2019-03-08T16:09:23.290Z,21.85
2019-03-08T16:10:57.543Z,21.88
2019-03-08T16:12:32.066Z,21.87
2019-03-08T16:14:09.000Z,21.84
2019-03-08T16:15:44.219Z,21.81
2019-03-08T16:17:18.508Z,21.75
2019-03-08T16:18:53.005Z,21.64
2019-03-08T16:20:27.225Z,21.55
2019-03-08T16:22:01.886Z,21.45
2019-03-08T16:23:36.113Z,21.33
2019-03-08T16:25:12.708Z,21.21
2019-03-08T16:26:46.928Z,21.09
2019-03-08T16:28:21.202Z,21.00
2019-03-08T16:29:55.949Z,20.88
2019-03-08T16:31:31.983Z,20.79
2019-03-08T16:33:10.825Z,20.72
2019-03-08T16:34:44.884Z,20.66
2019-03-08T16:36:25.978Z,20.57
2019-03-08T16:38:10.652Z,20.47
2019-03-08T16:39:46.142Z,20.36
2019-03-08T16:41:30.122Z,20.26
2019-03-08T16:43:22.442Z,20.17
2019-03-08T16:45:04.135Z,20.08
2019-03-08T16:46:45.640Z,19.97
2019-03-08T16:48:26.949Z,19.89
2019-03-08T16:50:02.640Z,19.81
2019-03-08T16:51:54.797Z,19.74
2019-03-08T16:53:30.999Z,19.66
2019-03-08T16:55:14.202Z,19.61
2019-03-08T16:56:50.066Z,19.53
2019-03-08T16:58:29.090Z,19.44
2019-03-08T17:00:08.237Z,19.38
2019-03-08T17:01:54.322Z,19.29
2019-03-08T17:03:30.219Z,19.21
2019-03-08T17:05:08.075Z,19.11
2019-03-08T17:06:50.014Z,19.01
2019-03-08T17:08:38.185Z,18.91
2019-03-08T17:10:14.038Z,18.86
2019-03-08T17:11:50.230Z,18.82
2019-03-08T17:13:26.558Z,18.79
2019-03-08T17:15:18.820Z,18.75
2019-03-08T17:16:54.702Z,18.68
2019-03-08T17:18:36.579Z,18.60
2019-03-08T17:20:17.949Z,18.54
2019-03-08T17:21:59.857Z,18.46
2019-03-08T17:23:41.299Z,18.38
2019-03-08T17:25:29.193Z,18.31
2019-03-08T17:27:13.813Z,18.21
2019-03-08T17:28:56.318Z,18.15
2019-03-08T17:30:32.175Z,18.08
2019-03-08T17:32:08.191Z,18.03
2019-03-08T17:33:51.551Z,17.97
2019-03-08T17:35:30.263Z,17.90
2019-03-08T17:37:15.125Z,17.82
2019-03-08T17:38:59.778Z,17.76
2019-03-08T17:40:52.406Z,17.68
2019-03-08T17:42:34.136Z,17.58
2019-03-08T17:44:22.092Z,17.49
2019-03-08T17:46:01.198Z,17.40
2019-03-08T17:47:46.350Z,17.32
2019-03-08T17:49:37.480Z,17.25
2019-03-08T17:51:16.341Z,17.18
2019-03-08T17:52:55.032Z,17.12
2019-03-08T17:54:33.836Z,17.05
2019-03-08T17:56:15.488Z,16.99
2019-03-08T17:58:07.914Z,16.92
2019-03-08T17:59:46.786Z,16.88
2019-03-08T18:01:39.051Z,16.83
2019-03-08T18:03:24.527Z,16.80
2019-03-08T18:05:00.494Z,16.76
2019-03-08T18:06:42.158Z,16.72
2019-03-08T18:08:36.473Z,16.67
2019-03-08T18:10:12.379Z,16.58
2019-03-08T18:11:48.287Z,16.52
2019-03-08T18:13:24.229Z,16.47
2019-03-08T18:15:16.595Z,16.42
2019-03-08T18:17:08.887Z,16.32
2019-03-08T18:18:44.805Z,16.25
2019-03-08T18:20:23.774Z,16.17
2019-03-08T18:21:59.640Z,16.05
2019-03-08T18:23:38.675Z,15.96
2019-03-08T18:25:14.574Z,15.92
2019-03-08T18:26:50.670Z,15.88
2019-03-08T18:28:41.765Z,15.81
2019-03-08T18:30:37.151Z,15.74
2019-03-08T18:32:19.509Z,15.68
2019-03-08T18:34:01.224Z,15.61
2019-03-08T18:35:40.213Z,15.55
2019-03-08T18:37:18.853Z,15.53
2019-03-08T18:39:07.030Z,15.51
2019-03-08T18:40:42.916Z,15.47
2019-03-08T18:42:34.983Z,15.43
2019-03-08T18:44:16.694Z,15.38
2019-03-08T18:46:01.784Z,15.35
2019-03-08T18:47:52.627Z,14.85
2019-03-08T18:49:28.665Z,15.24
2019-03-08T18:51:22.618Z,15.21
2019-03-08T18:53:14.585Z,15.16
2019-03-08T18:55:00.407Z,15.10
2019-03-08T18:56:51.035Z,15.05
2019-03-08T18:58:43.545Z,15.00
2019-03-08T19:00:32.476Z,14.96
2019-03-08T19:02:11.348Z,14.92
2019-03-08T19:04:03.772Z,14.87
2019-03-08T19:05:43.928Z,14.84
2019-03-08T19:07:29.057Z,14.76
2019-03-08T19:09:21.319Z,14.69
2019-03-08T19:11:16.622Z,14.56
2019-03-08T19:12:52.540Z,14.43
2019-03-08T19:14:28.386Z,14.34
2019-03-08T19:16:04.254Z,14.26
2019-03-08T19:17:40.396Z,14.17
2019-03-08T19:19:29.441Z,14.12
2019-03-08T19:21:21.732Z,14.07
2019-03-08T19:22:57.813Z,14.04
2019-03-08T19:24:39.915Z,14.00
2019-03-08T19:26:18.493Z,13.94
2019-03-08T19:28:06.528Z,13.92
2019-03-08T19:29:42.397Z,13.87
2019-03-08T19:31:20.941Z,13.82
2019-03-08T19:32:57.608Z,13.81
2019-03-08T19:34:56.026Z,13.78
2019-03-08T19:36:31.936Z,13.75
2019-03-08T19:38:07.795Z,13.72
2019-03-08T19:40:00.505Z,13.71
2019-03-08T19:41:52.756Z,13.69
2019-03-08T19:43:36.668Z,13.64
2019-03-08T19:45:13.337Z,13.60
2019-03-08T19:46:49.191Z,13.54
2019-03-08T19:48:27.767Z,13.44
2019-03-08T19:50:06.582Z,13.33
2019-03-08T19:51:58.014Z,13.27
2019-03-08T19:53:49.151Z,13.21
2019-03-08T19:55:25.015Z,13.15
2019-03-08T19:57:07.060Z,13.13
2019-03-08T19:58:42.983Z,13.10
2019-03-08T20:00:35.162Z,13.08
2019-03-08T20:02:14.623Z,13.07
2019-03-08T20:03:59.474Z,13.08
2019-03-08T20:05:44.497Z,13.05
2019-03-08T20:07:26.976Z,13.02
2019-03-08T20:09:08.861Z,12.98
2019-03-08T20:11:00.982Z,12.89
2019-03-08T20:12:53.542Z,12.86
2019-03-08T20:14:38.743Z,12.80
2019-03-08T20:16:20.596Z,12.74
2019-03-08T20:17:59.723Z,12.69
2019-03-08T20:19:44.468Z,12.64
2019-03-08T20:23:36.206Z,12.43
2019-03-08T20:25:20.986Z,12.37
2019-03-08T20:27:09.408Z,12.35
2019-03-08T20:28:45.894Z,12.31
2019-03-08T20:30:27.688Z,12.27
2019-03-08T20:32:12.652Z,12.21
2019-03-08T20:33:51.423Z,12.17
2019-03-08T20:35:33.334Z,12.12
2019-03-08T20:37:09.225Z,12.10
2019-03-08T20:39:00.324Z,12.06
2019-03-08T20:40:52.406Z,12.03
2019-03-08T20:42:40.294Z,11.99
2019-03-08T20:44:19.047Z,11.96
2019-03-08T20:45:54.895Z,11.94
2019-03-08T20:47:32.261Z,11.90
2019-03-08T20:49:07.039Z,11.85
2019-03-08T20:50:41.642Z,11.79
2019-03-08T20:52:17.390Z,11.73
2019-03-08T20:53:51.759Z,11.69
2019-03-08T20:55:25.981Z,11.67
2019-03-08T20:57:00.486Z,11.60
2019-03-08T20:58:34.710Z,11.56
2019-03-08T21:00:18.410Z,11.53
2019-03-08T21:01:52.694Z,11.51
2019-03-08T21:03:27.135Z,11.49
2019-03-08T21:05:01.809Z,11.50
2019-03-08T21:06:36.138Z,11.48
2019-03-08T21:08:10.374Z,11.46
2019-03-08T21:09:44.921Z,11.45
2019-03-08T21:11:19.257Z,11.42
2019-03-08T21:12:53.603Z,11.38
2019-03-08T21:14:29.053Z,11.35
2019-03-08T21:16:03.584Z,11.30
2019-03-08T21:17:37.810Z,11.29
2019-03-08T21:19:12.187Z,11.24
2019-03-08T21:20:46.481Z,11.22